Flight Track Log - Related Links

Times and Time Zones

All times are in EDT time to prevent confusion due to time zone crossing. See the AWI4065 flight status page for this flight to view local times or setup timezone preferences in your user account.

Time Position Orientation Groundspeed Altitude Reporting Facility
EDT Latitude Longitude Course Direction KTS MPH feet Rate Location/Type
Sat 02:56:30 PM 41.6903 -71.4314 158° South 152 175 1,400  Level Boston Center
Sat 02:57:39 PM 41.6333 -71.3933 153° Southeast 230 265 3,700 2,000 Climbing Boston Center
Sat 02:57:54 PM 41.6197 -71.3889 166° South 219 252 4,200 1,600 Climbing Boston Center
Sat 02:58:00 PM 41.5822 -71.7305 171° South  Level Estimated
Sat 02:58:54 PM 41.5511 -71.3664 166° South 253 291 5,700  Level Boston Center
Sat 02:59:00 PM 41.5347 -71.8309 238° Southwest  Level Estimated
Sat 02:59:56 PM 41.4669 -71.3400 167° South 286 329 8,300  Level Boston Center
Sat 03:00:00 PM 41.4872 -71.9312 238° Southwest  Level Estimated
Sat 03:00:59 PM 41.3878 -71.3153 167° South 288 331 10,400  Level Boston Center
Sat 03:01:00 PM 41.4395 -72.0314 238° Southwest  Level Estimated
Sat 03:02:00 PM 41.3047 -71.2897 167° South 306 352 11,600  Level Boston Center
Sat 03:03:00 PM 41.2100 -71.2606 167° South 321 369 13,300 1,452 Climbing Boston Center
Sat 03:04:04 PM 41.1258 -71.2719 186° South 329 379 14,600 1,161 Climbing Boston Center
Sat 03:05:04 PM 41.1072 -71.3856 258° West 327 376 15,700 1,190 Climbing Boston Center
Sat 03:06:05 PM 41.0761 -71.5094 252° West 331 381 17,000 1,082 Climbing Boston Center
Sat 03:07:06 PM 41.0133 -71.6014 228° Southwest 335 386 17,900 816 Climbing Boston Center
Sat 03:08:10 PM 40.9578 -71.6836 228° Southwest 336 387 18,700 871 Climbing Boston Center
Sat 03:09:10 PM 40.8897 -71.7853 228° Southwest 340 391 19,700 893 Climbing Boston Center
Sat 03:10:11 PM 40.8256 -71.8783 228° Southwest 341 392 20,500 683 Climbing Boston Center
Sat 03:11:13 PM 40.7619 -71.9708 228° Southwest 347 399 21,100 639 Climbing Boston Center
Sat 03:12:13 PM 40.6922 -72.0731 228° Southwest 353 406 21,800 871 Climbing Boston Center
Sat 03:13:17 PM 40.6244 -72.1725 228° Southwest 360 414 22,900 1,016 Climbing Boston Center
Sat 03:14:17 PM 40.5553 -72.2719 228° Southwest 364 419 23,900 545 Climbing Boston Center
Sat 03:15:18 PM 40.4728 -72.3917 228° Southwest 366 421 24,000 48 Climbing Boston Center
Sat 03:16:21 PM 40.4033 -72.4917 228° Southwest 369 425 24,000  Level Boston Center
Sat 03:17:22 PM 40.3347 -72.5900 228° Southwest 369 425 24,000  Level Boston Center
Sat 03:18:23 PM 40.2656 -72.6892 228° Southwest 368 423 24,000  Level Boston Center
Sat 03:19:26 PM 40.1994 -72.7828 227° Southwest 368 423 24,000  Level Boston Center
Sat 03:20:27 PM 40.1314 -72.8814 228° Southwest 368 423 24,000  Level Boston Center
Sat 03:21:28 PM 40.0614 -72.9800 227° Southwest 368 423 24,000  Level Boston Center
Sat 03:22:28 PM 39.9789 -73.0967 227° Southwest 368 423 24,000  Level Boston Center
Sat 03:23:30 PM 39.9092 -73.1956 227° Southwest 368 423 24,000  Level Boston Center
Sat 03:24:33 PM 39.8392 -73.2931 227° Southwest 368 423 24,000  Level Boston Center
Sat 03:25:20 PM 39.7806 -73.3775 228° Southwest 371 427 24,000  Level Washington Center
Sat 03:26:20 PM 39.7094 -73.4742 226° Southwest 371 427 24,000  Level Washington Center
Sat 03:27:21 PM 39.6400 -73.5706 227° Southwest 371 427 24,000  Level Washington Center
Sat 03:28:19 PM 39.5667 -73.6694 226° Southwest 371 427 24,000  Level Washington Center
Sat 03:29:20 PM 39.4994 -73.7681 229° Southwest 371 427 24,000  Level Washington Center
Sat 03:30:21 PM 39.4281 -73.8639 226° Southwest 371 427 24,000  Level Washington Center
Sat 03:31:21 PM 39.3586 -73.9622 228° Southwest 371 427 24,000  Level Washington Center
Sat 03:32:19 PM 39.2869 -74.0578 226° Southwest 371 427 24,000 -303 Level Washington Center
Sat 03:33:20 PM 39.2253 -74.1422 227° Southwest 371 427 23,400 -984 Descending Washington Center
Sat 03:34:21 PM 39.1517 -74.2453 227° Southwest 371 427 22,000 -1,412 Descending Washington Center
Sat 03:35:19 PM 39.0797 -74.3456 227° Southwest 377 434 20,600 -1,412 Descending Washington Center
Sat 03:36:20 PM 39.0036 -74.4458 226° Southwest 377 434 19,200 -1,377 Descending Washington Center
Sat 03:37:21 PM 38.9378 -74.5481 230° Southwest 382 440 17,800 -1,311 Descending Washington Center
Sat 03:38:19 PM 38.9119 -74.6792 256° West 371 427 16,600 -915 Descending Washington Center
Sat 03:39:19 PM 38.8878 -74.8075 256° West 364 419 16,000 -298 Descending Washington Center
Sat 03:40:20 PM 38.8656 -74.9331 257° West 364 419 16,000  Level Washington Center
Sat 03:41:21 PM 38.8411 -75.0506 255° West 358 412 16,000  Level Washington Center
Sat 03:42:19 PM 38.8186 -75.1706 257° West 353 406 16,000  Level Washington Center
Sat 03:43:20 PM 38.8067 -75.2881 263° West 353 406 16,000  Level Washington Center
Sat 03:44:21 PM 38.7986 -75.4133 265° West 353 406 16,000 -397 Level Washington Center
Sat 03:45:21 PM 38.7903 -75.5306 265° West 346 398 15,200 -915 Descending Washington Center
Sat 03:46:19 PM 38.7839 -75.6475 266° West 341 392 14,200 -1,008 Descending Washington Center
Sat 03:47:20 PM 38.7756 -75.7647 265° West 336 387 13,200 -984 Descending Washington Center
Sat 03:48:21 PM 38.7692 -75.8764 266° West 330 380 12,200 -1,008 Descending Washington Center
Sat 03:49:19 PM 38.7606 -75.9936 265° West 330 380 11,200 -605 Descending Washington Center
Sat 03:50:20 PM 38.7600 -76.1081 270° West 330 380 11,000 -492 Descending Washington Center
Sat 03:51:21 PM 38.7658 -76.2281 274° West 324 373 10,200 -446 Descending Washington Center
Sat 03:52:21 PM 38.7756 -76.3292 277° West 310 357 10,100 -51 Descending Washington Center
Sat 03:53:19 PM 38.7853 -76.4278 277° West 299 344 10,100 -50 Level Washington Center
Sat 03:54:20 PM 38.7950 -76.5267 277° West 289 333 10,000 -49 Descending Washington Center
Sat 03:55:21 PM 38.7983 -76.6250 273° West 284 327 10,000  Level Washington Center
Sat 03:57:45 PM 38.8500 -76.8500 286° West 314 361 10,000 -30 Level Potomac TRACON
Sat 03:58:40 PM 38.8833 -76.9167 303° West 261 300 9,900 -783 Descending Potomac TRACON
Sat 03:59:40 PM 38.9500 -76.9833 322° Northwest 267 307 8,500 -1,636 Descending Potomac TRACON
Sat 04:00:41 PM 39.0000 -77.0500 314° West 267 307 6,600 -2,132 Descending Potomac TRACON
Sat 04:01:41 PM 39.0500 -77.1167 314° West 273 314 4,200 -2,000 Descending Potomac TRACON
Sat 04:02:41 PM 39.0167 -77.1833 237° Southwest 251 289 2,600 -905 Descending Potomac TRACON
Sat 04:03:47 PM 38.9667 -77.1500 153° Southeast 194 223 2,300 -381 Descending Potomac TRACON
Sat 04:04:47 PM 38.9167 -77.1167 153° Southeast 164 189 1,800 -595 Descending Potomac TRACON
Sat 04:05:48 PM 38.9000 -77.0667 113° Southeast 145 167 1,100 -645 Descending Potomac TRACON
Sat 04:06:48 PM 38.8667 -77.0333 142° Southeast 140 161 500 -600 Descending Potomac TRACON
Sat 04:08:00 PM 38.8500 -77.0333 150° Southeast  Level FlightAware Approximate

Login

Don't have an account? Register now (free) for customized features, flight alerts, and more!